Date,TemperatureHighF,TemperatureAvgF,TemperatureLowF,DewpointHighF,DewpointAvgF,DewpointLowF,HumidityHigh,HumidityAvg,HumidityLow,PressureMaxIn,PressureMinIn,WindSpeedMaxMPH,WindSpeedAvgMPH,GustSpeedMaxMPH,PrecipitationSumIn
2013-12-1,38,35,30,36,32,22,97,89,71,30.45,30.03,8,2,11,0.10
2013-12-2,39,38,36,38,36,35,97,96,94,30.03,29.92,8,4,13,0.07
2013-12-3,47,39,35,39,35,31,97,87,68,29.94,29.84,10,5,16,0.00
2013-12-4,41,37,31,31,29,26,87,73,61,30.21,29.93,10,4,18,0.00
2013-12-5,48,40,30,47,37,27,98,91,83,30.24,29.91,5,1,8,0.01
2013-12-6,55,46,34,55,43,32,99,90,69,30.15,29.85,14,4,26,0.12
2013-12-7,38,33,27,34,26,-100,95,76,54,30.46,30.09,14,4,25,0.16
2013-12-8,29,27,22,21,18,16,85,70,57,30.60,30.45,7,2,12,0.01
2013-12-9,41,35,26,40,32,17,97,91,63,30.51,29.87,16,7,24,0.27
2013-12-10,36,32,26,34,28,14,97,86,57,29.98,29.78,8,4,21,0.01
2013-12-11,32,27,22,20,17,14,81,67,50,30.19,29.98,14,6,23,0.01
2013-12-12,25,21,16,19,9,1,81,60,39,30.26,30.06,18,5,31,0.01
2013-12-13,28,21,14,19,11,1,73,64,54,30.42,29.98,11,6,23,0.00
2013-12-14,29,16,9,27,7,-100,95,72,54,30.64,30.22,18,8,26,0.00
2013-12-15,34,27,19,34,25,17,98,94,88,30.22,29.43,29,11,39,0.04
2013-12-16,28,24,17,22,15,7,90,70,45,30.21,29.72,12,5,22,0.01
2013-12-17,21,14,6,18,8,-1,93,77,62,30.30,29.98,14,5,20,0.00
2013-12-18,33,26,16,22,20,14,91,78,59,30.06,29.87,13,7,21,0.00
2013-12-19,42,33,27,27,24,21,79,69,51,30.11,29.94,13,4,22,0.02
2013-12-20,51,40,31,38,33,27,91,76,58,30.12,29.89,5,1,10,0.04
2013-12-21,59,48,37,48,40,-100,90,76,64,29.94,29.84,5,2,12,0.01
2013-12-22,51,37,32,47,35,30,97,95,85,30.05,29.84,12,5,19,0.14
2013-12-23,38,33,30,37,32,29,98,97,94,30.11,29.99,6,2,9,0.41
2013-12-24,37,33,27,35,23,14,95,69,52,30.20,30.06,11,5,19,0.01
2013-12-25,27,19,12,15,6,0,71,56,46,30.57,30.20,20,7,28,0.00
2013-12-26,32,25,19,31,21,9,95,83,63,30.52,30.09,7,2,11,0.00
2013-12-27,34,28,22,23,21,20,93,76,59,30.26,30.18,9,3,20,0.00
2013-12-28,46,35,26,31,24,-100,83,69,51,30.21,29.96,11,3,21,0.01
2013-12-29,41,36,31,40,32,27,97,84,70,30.03,29.44,16,3,26,0.84
2013-12-30,42,33,18,36,25,4,95,74,45,30.19,29.51,16,7,27,0.70
2013-12-31,23,17,11,15,4,-1,77,57,41,30.19,30.03,10,4,18,0.00